KIAH

George Bush Intercontinental / Houston Airport

Houston, Texas, USA
METAR KIAH 232253Z 35006KT 10SM BKN250 16/M04 A3024 RMK AO2 SLP240 T01611039
Observed Flight Rules
Jan-23 @ 22:53 UTC (45 minutes ago) Visual Flight Rules
Wind Visibility Clouds
350° at 6 knots 10 miles
  • Broken at 25,000' AGL
Temperatures Readings
Current 16°C / 61°F
Dewpoint -4°C / 25°F
Humidity 25%
Altimeter 30.24" Hg
Pressure 1024 hPa
Elevation 36
METAR KIAH 232253Z 35006KT 10SM BKN250 16/M04 A3024 RMK AO2 SLP240 T01611039
Observed Flight Rules
Jan-23 @ 22:53 UTC
(45 minutes ago)
VFR
Wind Visibility
350° at 6 knots 10 miles
Clouds
  • Broken at 25,000' AGL
Temperature Dewpoint
16°C / 61°F -4°C / 25°F
Humidity Altimeter Pressure
25% 30.24" Hg 1024 hPa